sensor_id;sensor_type;location;lat;lon;timestamp;P1;durP1;ratioP1;P2;durP2;ratioP2
5754;SDS011;2902;42.130;24.732;2023-04-24T00:00:14;8.03;;;6.83;;
5754;SDS011;2902;42.130;24.732;2023-04-24T00:02:42;10.80;;;7.10;;
5754;SDS011;2902;42.130;24.732;2023-04-24T00:05:12;8.30;;;7.60;;
5754;SDS011;2902;42.130;24.732;2023-04-24T00:07:41;8.00;;;7.20;;
5754;SDS011;2902;42.130;24.732;2023-04-24T00:10:08;12.90;;;7.70;;
5754;SDS011;2902;42.130;24.732;2023-04-24T00:12:36;43.70;;;14.27;;
5754;SDS011;2902;42.130;24.732;2023-04-24T00:15:03;29.30;;;12.60;;
5754;SDS011;2902;42.130;24.732;2023-04-24T00:17:31;14.63;;;8.90;;
5754;SDS011;2902;42.130;24.732;2023-04-24T00:19:57;17.67;;;10.90;;
5754;SDS011;2902;42.130;24.732;2023-04-24T00:22:24;13.20;;;8.47;;
5754;SDS011;2902;42.130;24.732;2023-04-24T00:24:53;10.80;;;7.13;;
5754;SDS011;2902;42.130;24.732;2023-04-24T00:27:20;9.60;;;6.90;;
5754;SDS011;2902;42.130;24.732;2023-04-24T00:29:46;8.37;;;7.40;;
5754;SDS011;2902;42.130;24.732;2023-04-24T00:32:13;11.97;;;8.27;;
5754;SDS011;2902;42.130;24.732;2023-04-24T00:34:40;9.93;;;7.00;;
5754;SDS011;2902;42.130;24.732;2023-04-24T00:37:07;9.90;;;6.93;;
5754;SDS011;2902;42.130;24.732;2023-04-24T00:39:34;8.33;;;6.57;;
5754;SDS011;2902;42.130;24.732;2023-04-24T00:42:02;8.00;;;7.07;;
5754;SDS011;2902;42.130;24.732;2023-04-24T00:44:31;15.67;;;6.70;;
5754;SDS011;2902;42.130;24.732;2023-04-24T00:46:58;7.43;;;6.77;;
5754;SDS011;2902;42.130;24.732;2023-04-24T00:49:25;8.80;;;6.87;;
5754;SDS011;2902;42.130;24.732;2023-04-24T00:51:52;9.80;;;7.93;;
5754;SDS011;2902;42.130;24.732;2023-04-24T00:54:19;10.10;;;9.20;;
5754;SDS011;2902;42.130;24.732;2023-04-24T00:56:46;10.23;;;9.23;;
5754;SDS011;2902;42.130;24.732;2023-04-24T00:59:14;13.93;;;10.17;;
5754;SDS011;2902;42.130;24.732;2023-04-24T01:01:43;11.70;;;10.63;;
5754;SDS011;2902;42.130;24.732;2023-04-24T01:04:11;15.30;;;10.47;;
5754;SDS011;2902;42.130;24.732;2023-04-24T01:06:39;15.00;;;11.53;;
5754;SDS011;2902;42.130;24.732;2023-04-24T01:09:06;14.37;;;10.63;;
5754;SDS011;2902;42.130;24.732;2023-04-24T01:11:33;17.43;;;11.33;;
5754;SDS011;2902;42.130;24.732;2023-04-24T01:14:00;12.80;;;10.40;;
5754;SDS011;2902;42.130;24.732;2023-04-24T01:16:29;11.50;;;10.30;;
5754;SDS011;2902;42.130;24.732;2023-04-24T01:18:55;12.90;;;10.20;;
5754;SDS011;2902;42.130;24.732;2023-04-24T01:21:22;10.63;;;9.33;;
5754;SDS011;2902;42.130;24.732;2023-04-24T01:23:54;10.23;;;9.30;;
5754;SDS011;2902;42.130;24.732;2023-04-24T01:26:22;9.87;;;9.07;;
5754;SDS011;2902;42.130;24.732;2023-04-24T01:28:50;10.30;;;9.40;;
5754;SDS011;2902;42.130;24.732;2023-04-24T01:31:17;10.57;;;9.47;;
5754;SDS011;2902;42.130;24.732;2023-04-24T01:33:44;15.00;;;10.03;;
5754;SDS011;2902;42.130;24.732;2023-04-24T01:36:11;10.37;;;9.43;;
5754;SDS011;2902;42.130;24.732;2023-04-24T01:38:38;11.10;;;10.00;;
5754;SDS011;2902;42.130;24.732;2023-04-24T01:41:06;11.73;;;10.53;;
5754;SDS011;2902;42.130;24.732;2023-04-24T01:43:33;12.20;;;9.20;;
5754;SDS011;2902;42.130;24.732;2023-04-24T01:46:00;10.70;;;9.33;;
5754;SDS011;2902;42.130;24.732;2023-04-24T01:48:27;11.23;;;10.30;;
5754;SDS011;2902;42.130;24.732;2023-04-24T01:50:54;12.17;;;10.93;;
5754;SDS011;2902;42.130;24.732;2023-04-24T01:53:22;12.10;;;10.10;;
5754;SDS011;2902;42.130;24.732;2023-04-24T01:55:49;11.97;;;10.77;;
5754;SDS011;2902;42.130;24.732;2023-04-24T01:58:17;11.40;;;9.77;;
5754;SDS011;2902;42.130;24.732;2023-04-24T02:00:44;11.50;;;10.50;;
5754;SDS011;2902;42.130;24.732;2023-04-24T02:03:10;10.80;;;9.87;;
5754;SDS011;2902;42.130;24.732;2023-04-24T02:05:37;11.20;;;10.20;;
5754;SDS011;2902;42.130;24.732;2023-04-24T02:08:04;12.03;;;10.63;;
5754;SDS011;2902;42.130;24.732;2023-04-24T02:10:30;12.60;;;10.47;;
5754;SDS011;2902;42.130;24.732;2023-04-24T02:12:57;10.50;;;9.60;;
5754;SDS011;2902;42.130;24.732;2023-04-24T02:15:26;13.03;;;9.77;;
5754;SDS011;2902;42.130;24.732;2023-04-24T02:17:52;10.57;;;9.40;;
5754;SDS011;2902;42.130;24.732;2023-04-24T02:20:19;10.10;;;9.20;;
5754;SDS011;2902;42.130;24.732;2023-04-24T02:22:46;9.50;;;8.63;;
5754;SDS011;2902;42.130;24.732;2023-04-24T02:25:12;10.20;;;9.10;;
5754;SDS011;2902;42.130;24.732;2023-04-24T02:27:39;13.60;;;9.20;;
5754;SDS011;2902;42.130;24.732;2023-04-24T02:30:06;12.50;;;9.53;;
5754;SDS011;2902;42.130;24.732;2023-04-24T02:32:36;11.87;;;9.57;;
5754;SDS011;2902;42.130;24.732;2023-04-24T02:35:04;14.27;;;9.27;;
5754;SDS011;2902;42.130;24.732;2023-04-24T02:37:31;17.10;;;9.77;;
5754;SDS011;2902;42.130;24.732;2023-04-24T02:39:58;10.60;;;9.60;;
5754;SDS011;2902;42.130;24.732;2023-04-24T02:42:25;18.40;;;9.80;;
5754;SDS011;2902;42.130;24.732;2023-04-24T02:44:51;14.13;;;9.77;;
5754;SDS011;2902;42.130;24.732;2023-04-24T02:47:18;9.73;;;8.83;;
5754;SDS011;2902;42.130;24.732;2023-04-24T02:49:46;14.67;;;10.33;;
5754;SDS011;2902;42.130;24.732;2023-04-24T02:52:13;22.80;;;10.23;;
5754;SDS011;2902;42.130;24.732;2023-04-24T02:54:39;13.60;;;9.80;;
5754;SDS011;2902;42.130;24.732;2023-04-24T02:57:06;11.40;;;9.07;;
5754;SDS011;2902;42.130;24.732;2023-04-24T02:59:33;18.20;;;8.63;;
5754;SDS011;2902;42.130;24.732;2023-04-24T03:01:59;14.80;;;9.17;;
5754;SDS011;2902;42.130;24.732;2023-04-24T03:04:26;11.50;;;9.10;;
5754;SDS011;2902;42.130;24.732;2023-04-24T03:06:54;15.33;;;9.87;;
5754;SDS011;2902;42.130;24.732;2023-04-24T03:09:21;11.63;;;9.97;;
5754;SDS011;2902;42.130;24.732;2023-04-24T03:11:48;13.33;;;10.33;;
5754;SDS011;2902;42.130;24.732;2023-04-24T03:14:15;11.87;;;10.27;;
5754;SDS011;2902;42.130;24.732;2023-04-24T03:16:42;16.17;;;9.93;;
5754;SDS011;2902;42.130;24.732;2023-04-24T03:19:08;23.13;;;10.90;;
5754;SDS011;2902;42.130;24.732;2023-04-24T03:21:35;19.60;;;11.43;;
5754;SDS011;2902;42.130;24.732;2023-04-24T03:24:07;22.13;;;11.73;;
5754;SDS011;2902;42.130;24.732;2023-04-24T03:26:33;21.10;;;11.87;;
5754;SDS011;2902;42.130;24.732;2023-04-24T03:29:00;21.10;;;11.77;;
5754;SDS011;2902;42.130;24.732;2023-04-24T03:31:27;16.83;;;10.80;;
5754;SDS011;2902;42.130;24.732;2023-04-24T03:33:53;18.20;;;11.37;;
5754;SDS011;2902;42.130;24.732;2023-04-24T03:36:20;23.37;;;11.17;;
5754;SDS011;2902;42.130;24.732;2023-04-24T03:38:47;16.37;;;10.70;;
5754;SDS011;2902;42.130;24.732;2023-04-24T03:41:15;22.47;;;11.30;;
5754;SDS011;2902;42.130;24.732;2023-04-24T03:43:41;21.00;;;12.67;;
5754;SDS011;2902;42.130;24.732;2023-04-24T03:46:08;27.73;;;12.07;;
5754;SDS011;2902;42.130;24.732;2023-04-24T03:48:35;23.37;;;13.30;;
5754;SDS011;2902;42.130;24.732;2023-04-24T03:51:02;24.00;;;13.20;;
5754;SDS011;2902;42.130;24.732;2023-04-24T03:53:29;15.40;;;12.43;;
5754;SDS011;2902;42.130;24.732;2023-04-24T03:55:55;23.20;;;13.07;;
5754;SDS011;2902;42.130;24.732;2023-04-24T03:58:23;19.83;;;12.93;;
5754;SDS011;2902;42.130;24.732;2023-04-24T04:00:50;17.33;;;13.27;;
5754;SDS011;2902;42.130;24.732;2023-04-24T04:03:17;17.13;;;12.27;;
5754;SDS011;2902;42.130;24.732;2023-04-24T04:05:44;19.97;;;12.37;;
5754;SDS011;2902;42.130;24.732;2023-04-24T04:08:10;21.40;;;13.20;;
5754;SDS011;2902;42.130;24.732;2023-04-24T04:10:37;22.63;;;12.87;;
5754;SDS011;2902;42.130;24.732;2023-04-24T04:13:04;64.87;;;14.87;;
5754;SDS011;2902;42.130;24.732;2023-04-24T04:15:32;28.73;;;13.83;;
5754;SDS011;2902;42.130;24.732;2023-04-24T04:17:59;44.33;;;12.93;;
5754;SDS011;2902;42.130;24.732;2023-04-24T04:20:26;23.33;;;12.90;;
5754;SDS011;2902;42.130;24.732;2023-04-24T04:22:52;20.37;;;13.17;;
5754;SDS011;2902;42.130;24.732;2023-04-24T04:25:19;32.20;;;13.27;;
5754;SDS011;2902;42.130;24.732;2023-04-24T04:27:46;17.87;;;10.27;;
5754;SDS011;2902;42.130;24.732;2023-04-24T04:30:14;18.23;;;10.50;;
5754;SDS011;2902;42.130;24.732;2023-04-24T04:32:42;8.20;;;7.47;;
5754;SDS011;2902;42.130;24.732;2023-04-24T04:35:08;11.57;;;7.30;;
5754;SDS011;2902;42.130;24.732;2023-04-24T04:37:36;9.63;;;6.97;;
5754;SDS011;2902;42.130;24.732;2023-04-24T04:40:03;22.13;;;7.90;;
5754;SDS011;2902;42.130;24.732;2023-04-24T04:42:32;14.03;;;8.50;;
5754;SDS011;2902;42.130;24.732;2023-04-24T04:44:59;14.07;;;7.33;;
5754;SDS011;2902;42.130;24.732;2023-04-24T04:47:27;12.00;;;8.40;;
5754;SDS011;2902;42.130;24.732;2023-04-24T04:49:58;10.53;;;7.73;;
5754;SDS011;2902;42.130;24.732;2023-04-24T04:52:24;16.53;;;8.47;;
5754;SDS011;2902;42.130;24.732;2023-04-24T04:54:51;14.50;;;9.27;;
5754;SDS011;2902;42.130;24.732;2023-04-24T04:57:18;21.97;;;10.30;;
5754;SDS011;2902;42.130;24.732;2023-04-24T04:59:45;16.97;;;7.53;;
5754;SDS011;2902;42.130;24.732;2023-04-24T05:02:12;13.77;;;8.60;;
5754;SDS011;2902;42.130;24.732;2023-04-24T05:04:38;62.10;;;11.97;;
5754;SDS011;2902;42.130;24.732;2023-04-24T05:07:06;9.67;;;8.77;;
5754;SDS011;2902;42.130;24.732;2023-04-24T05:09:33;16.27;;;8.43;;
5754;SDS011;2902;42.130;24.732;2023-04-24T05:12:00;13.30;;;8.73;;
5754;SDS011;2902;42.130;24.732;2023-04-24T05:14:27;12.10;;;8.27;;
5754;SDS011;2902;42.130;24.732;2023-04-24T05:16:54;12.73;;;9.80;;
5754;SDS011;2902;42.130;24.732;2023-04-24T05:19:20;14.43;;;9.13;;
5754;SDS011;2902;42.130;24.732;2023-04-24T05:21:47;8.77;;;7.97;;
5754;SDS011;2902;42.130;24.732;2023-04-24T05:24:15;13.50;;;8.70;;
5754;SDS011;2902;42.130;24.732;2023-04-24T05:26:42;36.20;;;10.60;;
5754;SDS011;2902;42.130;24.732;2023-04-24T05:29:08;11.00;;;7.20;;
5754;SDS011;2902;42.130;24.732;2023-04-24T05:31:35;10.97;;;8.13;;
5754;SDS011;2902;42.130;24.732;2023-04-24T05:34:02;8.80;;;8.20;;
5754;SDS011;2902;42.130;24.732;2023-04-24T05:36:28;11.70;;;8.63;;
5754;SDS011;2902;42.130;24.732;2023-04-24T05:38:55;17.20;;;9.03;;
5754;SDS011;2902;42.130;24.732;2023-04-24T05:41:24;12.50;;;9.23;;
5754;SDS011;2902;42.130;24.732;2023-04-24T05:43:50;11.67;;;6.57;;
5754;SDS011;2902;42.130;24.732;2023-04-24T05:46:17;11.77;;;7.33;;
5754;SDS011;2902;42.130;24.732;2023-04-24T05:48:44;11.80;;;7.00;;
5754;SDS011;2902;42.130;24.732;2023-04-24T05:51:11;19.03;;;6.93;;
5754;SDS011;2902;42.130;24.732;2023-04-24T05:53:37;18.00;;;7.07;;
5754;SDS011;2902;42.130;24.732;2023-04-24T05:56:04;15.33;;;7.70;;
5754;SDS011;2902;42.130;24.732;2023-04-24T05:58:32;16.13;;;6.67;;
5754;SDS011;2902;42.130;24.732;2023-04-24T06:00:59;8.27;;;7.43;;
5754;SDS011;2902;42.130;24.732;2023-04-24T06:03:27;14.93;;;7.30;;
5754;SDS011;2902;42.130;24.732;2023-04-24T06:05:54;10.50;;;6.80;;
5754;SDS011;2902;42.130;24.732;2023-04-24T06:08:21;24.33;;;7.03;;
5754;SDS011;2902;42.130;24.732;2023-04-24T06:10:47;12.60;;;6.90;;
5754;SDS011;2902;42.130;24.732;2023-04-24T06:13:14;12.07;;;7.27;;
5754;SDS011;2902;42.130;24.732;2023-04-24T06:15:43;13.30;;;6.87;;
5754;SDS011;2902;42.130;24.732;2023-04-24T06:18:10;15.33;;;7.30;;
5754;SDS011;2902;42.130;24.732;2023-04-24T06:20:37;9.00;;;8.07;;
5754;SDS011;2902;42.130;24.732;2023-04-24T06:23:04;12.40;;;7.90;;
5754;SDS011;2902;42.130;24.732;2023-04-24T06:25:31;253.67;;;22.90;;
5754;SDS011;2902;42.130;24.732;2023-04-24T06:27:58;13.47;;;7.00;;
5754;SDS011;2902;42.130;24.732;2023-04-24T06:30:24;15.60;;;7.33;;
5754;SDS011;2902;42.130;24.732;2023-04-24T06:32:53;9.30;;;6.63;;
5754;SDS011;2902;42.130;24.732;2023-04-24T06:35:20;11.97;;;5.90;;
5754;SDS011;2902;42.130;24.732;2023-04-24T06:37:47;14.57;;;6.50;;
5754;SDS011;2902;42.130;24.732;2023-04-24T06:40:14;19.87;;;6.97;;
5754;SDS011;2902;42.130;24.732;2023-04-24T06:42:40;14.67;;;6.53;;
5754;SDS011;2902;42.130;24.732;2023-04-24T06:45:07;14.53;;;6.40;;
5754;SDS011;2902;42.130;24.732;2023-04-24T06:47:35;10.30;;;5.13;;
5754;SDS011;2902;42.130;24.732;2023-04-24T06:50:03;8.47;;;4.87;;
5754;SDS011;2902;42.130;24.732;2023-04-24T06:52:30;7.13;;;6.17;;
5754;SDS011;2902;42.130;24.732;2023-04-24T06:54:59;8.57;;;6.40;;
5754;SDS011;2902;42.130;24.732;2023-04-24T06:57:27;11.80;;;6.30;;
5754;SDS011;2902;42.130;24.732;2023-04-24T06:59:53;12.30;;;5.77;;
5754;SDS011;2902;42.130;24.732;2023-04-24T07:02:20;11.77;;;5.60;;
5754;SDS011;2902;42.130;24.732;2023-04-24T07:04:47;5.63;;;5.13;;
5754;SDS011;2902;42.130;24.732;2023-04-24T07:07:15;10.87;;;6.60;;
5754;SDS011;2902;42.130;24.732;2023-04-24T07:09:42;9.20;;;5.30;;
5754;SDS011;2902;42.130;24.732;2023-04-24T07:12:10;7.47;;;6.57;;
5754;SDS011;2902;42.130;24.732;2023-04-24T07:14:37;8.40;;;7.43;;
5754;SDS011;2902;42.130;24.732;2023-04-24T07:17:04;14.47;;;5.67;;
5754;SDS011;2902;42.130;24.732;2023-04-24T07:19:31;13.63;;;6.47;;
5754;SDS011;2902;42.130;24.732;2023-04-24T07:22:00;8.57;;;5.50;;
5754;SDS011;2902;42.130;24.732;2023-04-24T07:24:29;7.97;;;6.50;;
5754;SDS011;2902;42.130;24.732;2023-04-24T07:26:57;10.17;;;5.63;;
5754;SDS011;2902;42.130;24.732;2023-04-24T07:29:24;9.53;;;5.57;;
5754;SDS011;2902;42.130;24.732;2023-04-24T07:31:51;9.10;;;5.80;;
5754;SDS011;2902;42.130;24.732;2023-04-24T07:34:19;5.53;;;4.90;;
5754;SDS011;2902;42.130;24.732;2023-04-24T07:36:45;18.07;;;6.33;;
5754;SDS011;2902;42.130;24.732;2023-04-24T07:39:12;8.03;;;7.20;;
5754;SDS011;2902;42.130;24.732;2023-04-24T07:41:40;7.33;;;6.03;;
5754;SDS011;2902;42.130;24.732;2023-04-24T07:44:07;18.53;;;5.83;;
5754;SDS011;2902;42.130;24.732;2023-04-24T07:46:34;7.10;;;6.50;;
5754;SDS011;2902;42.130;24.732;2023-04-24T07:49:01;10.83;;;6.90;;
5754;SDS011;2902;42.130;24.732;2023-04-24T07:51:28;8.67;;;6.73;;
5754;SDS011;2902;42.130;24.732;2023-04-24T07:53:55;7.60;;;6.87;;
5754;SDS011;2902;42.130;24.732;2023-04-24T07:56:22;9.30;;;5.60;;
5754;SDS011;2902;42.130;24.732;2023-04-24T07:58:50;6.73;;;6.10;;
5754;SDS011;2902;42.130;24.732;2023-04-24T08:01:17;18.37;;;7.20;;
5754;SDS011;2902;42.130;24.732;2023-04-24T08:03:43;11.93;;;6.17;;
5754;SDS011;2902;42.130;24.732;2023-04-24T08:06:10;8.77;;;7.63;;
5754;SDS011;2902;42.130;24.732;2023-04-24T08:08:37;16.03;;;7.03;;
5754;SDS011;2902;42.130;24.732;2023-04-24T08:11:03;16.00;;;7.10;;
5754;SDS011;2902;42.130;24.732;2023-04-24T08:13:30;12.17;;;6.87;;
5754;SDS011;2902;42.130;24.732;2023-04-24T08:15:58;8.63;;;6.67;;
5754;SDS011;2902;42.130;24.732;2023-04-24T08:18:25;23.00;;;7.57;;
5754;SDS011;2902;42.130;24.732;2023-04-24T08:20:52;24.30;;;7.97;;
5754;SDS011;2902;42.130;24.732;2023-04-24T08:23:18;10.13;;;5.53;;
5754;SDS011;2902;42.130;24.732;2023-04-24T08:25:45;18.73;;;7.73;;
5754;SDS011;2902;42.130;24.732;2023-04-24T08:28:12;12.70;;;9.70;;
5754;SDS011;2902;42.130;24.732;2023-04-24T08:30:45;10.87;;;7.70;;
5754;SDS011;2902;42.130;24.732;2023-04-24T08:33:13;16.47;;;6.97;;
5754;SDS011;2902;42.130;24.732;2023-04-24T08:35:40;15.20;;;7.60;;
5754;SDS011;2902;42.130;24.732;2023-04-24T08:38:07;9.73;;;7.20;;
5754;SDS011;2902;42.130;24.732;2023-04-24T08:40:34;13.13;;;8.10;;
5754;SDS011;2902;42.130;24.732;2023-04-24T08:43:01;15.70;;;7.63;;
5754;SDS011;2902;42.130;24.732;2023-04-24T08:45:29;10.07;;;6.67;;
5754;SDS011;2902;42.130;24.732;2023-04-24T08:47:56;28.70;;;7.70;;
5754;SDS011;2902;42.130;24.732;2023-04-24T08:50:25;8.43;;;7.33;;
5754;SDS011;2902;42.130;24.732;2023-04-24T08:52:53;9.57;;;7.17;;
5754;SDS011;2902;42.130;24.732;2023-04-24T08:55:20;10.60;;;7.00;;
5754;SDS011;2902;42.130;24.732;2023-04-24T08:57:49;11.90;;;7.30;;
5754;SDS011;2902;42.130;24.732;2023-04-24T09:00:19;14.87;;;6.30;;
5754;SDS011;2902;42.130;24.732;2023-04-24T09:02:47;10.20;;;5.93;;
5754;SDS011;2902;42.130;24.732;2023-04-24T09:05:16;6.17;;;5.57;;
5754;SDS011;2902;42.130;24.732;2023-04-24T09:07:47;6.97;;;6.23;;
5754;SDS011;2902;42.130;24.732;2023-04-24T09:10:18;10.97;;;5.63;;
5754;SDS011;2902;42.130;24.732;2023-04-24T09:12:46;8.17;;;5.90;;
5754;SDS011;2902;42.130;24.732;2023-04-24T09:15:12;6.13;;;4.97;;
5754;SDS011;2902;42.130;24.732;2023-04-24T09:17:40;7.23;;;6.63;;
5754;SDS011;2902;42.130;24.732;2023-04-24T09:20:07;8.97;;;5.67;;
5754;SDS011;2902;42.130;24.732;2023-04-24T09:22:34;12.40;;;5.60;;
5754;SDS011;2902;42.130;24.732;2023-04-24T09:25:06;8.87;;;5.50;;
5754;SDS011;2902;42.130;24.732;2023-04-24T09:27:36;9.83;;;5.90;;
5754;SDS011;2902;42.130;24.732;2023-04-24T09:30:09;7.03;;;6.17;;
5754;SDS011;2902;42.130;24.732;2023-04-24T09:32:36;9.87;;;5.20;;
5754;SDS011;2902;42.130;24.732;2023-04-24T09:35:10;12.63;;;5.90;;
5754;SDS011;2902;42.130;24.732;2023-04-24T09:37:38;27.53;;;6.73;;
5754;SDS011;2902;42.130;24.732;2023-04-24T09:40:14;10.83;;;5.60;;
5754;SDS011;2902;42.130;24.732;2023-04-24T09:42:45;6.40;;;5.60;;
5754;SDS011;2902;42.130;24.732;2023-04-24T09:45:17;13.67;;;5.90;;
5754;SDS011;2902;42.130;24.732;2023-04-24T09:47:44;5.50;;;5.00;;
5754;SDS011;2902;42.130;24.732;2023-04-24T09:50:12;5.40;;;4.90;;
5754;SDS011;2902;42.130;24.732;2023-04-24T09:52:40;5.37;;;4.87;;
5754;SDS011;2902;42.130;24.732;2023-04-24T09:55:16;5.50;;;4.80;;
5754;SDS011;2902;42.130;24.732;2023-04-24T09:57:48;10.40;;;5.70;;
5754;SDS011;2902;42.130;24.732;2023-04-24T10:00:21;5.63;;;5.17;;
5754;SDS011;2902;42.130;24.732;2023-04-24T10:02:54;14.57;;;5.60;;
5754;SDS011;2902;42.130;24.732;2023-04-24T10:05:25;7.37;;;5.60;;
5754;SDS011;2902;42.130;24.732;2023-04-24T10:07:56;15.47;;;6.10;;
5754;SDS011;2902;42.130;24.732;2023-04-24T10:10:25;9.27;;;5.60;;
5754;SDS011;2902;42.130;24.732;2023-04-24T10:12:52;6.47;;;5.60;;
5754;SDS011;2902;42.130;24.732;2023-04-24T10:15:19;6.50;;;4.50;;
5754;SDS011;2902;42.130;24.732;2023-04-24T10:17:47;7.10;;;5.57;;
5754;SDS011;2902;42.130;24.732;2023-04-24T10:20:18;6.87;;;6.17;;
5754;SDS011;2902;42.130;24.732;2023-04-24T10:22:46;6.27;;;5.70;;
5754;SDS011;2902;42.130;24.732;2023-04-24T10:25:16;5.53;;;5.13;;
5754;SDS011;2902;42.130;24.732;2023-04-24T10:27:47;6.60;;;6.00;;
5754;SDS011;2902;42.130;24.732;2023-04-24T10:30:15;5.90;;;5.43;;
5754;SDS011;2902;42.130;24.732;2023-04-24T10:32:42;7.77;;;5.50;;
5754;SDS011;2902;42.130;24.732;2023-04-24T10:35:08;5.83;;;5.10;;
5754;SDS011;2902;42.130;24.732;2023-04-24T10:37:38;7.13;;;5.87;;
5754;SDS011;2902;42.130;24.732;2023-04-24T10:40:09;6.17;;;5.63;;
5754;SDS011;2902;42.130;24.732;2023-04-24T10:42:39;7.67;;;5.33;;
5754;SDS011;2902;42.130;24.732;2023-04-24T10:45:17;8.70;;;6.13;;
5754;SDS011;2902;42.130;24.732;2023-04-24T10:47:56;5.07;;;4.70;;
5754;SDS011;2902;42.130;24.732;2023-04-24T10:50:25;6.80;;;5.10;;
5754;SDS011;2902;42.130;24.732;2023-04-24T10:52:55;15.70;;;4.60;;
5754;SDS011;2902;42.130;24.732;2023-04-24T10:55:42;5.67;;;4.90;;
5754;SDS011;2902;42.130;24.732;2023-04-24T10:58:10;7.87;;;5.23;;
5754;SDS011;2902;42.130;24.732;2023-04-24T11:00:39;5.80;;;5.20;;
5754;SDS011;2902;42.130;24.732;2023-04-24T11:03:06;8.10;;;4.77;;
5754;SDS011;2902;42.130;24.732;2023-04-24T11:05:52;11.47;;;5.77;;
5754;SDS011;2902;42.130;24.732;2023-04-24T11:08:25;7.10;;;5.57;;
5754;SDS011;2902;42.130;24.732;2023-04-24T11:10:54;7.83;;;5.50;;
5754;SDS011;2902;42.130;24.732;2023-04-24T11:13:26;6.07;;;5.60;;
5754;SDS011;2902;42.130;24.732;2023-04-24T11:16:15;7.47;;;5.40;;
5754;SDS011;2902;42.130;24.732;2023-04-24T11:18:49;5.77;;;4.87;;
5754;SDS011;2902;42.130;24.732;2023-04-24T11:21:19;9.13;;;5.50;;
5754;SDS011;2902;42.130;24.732;2023-04-24T11:23:46;9.30;;;5.90;;
5754;SDS011;2902;42.130;24.732;2023-04-24T11:26:14;15.07;;;5.93;;
5754;SDS011;2902;42.130;24.732;2023-04-24T11:28:45;5.73;;;5.23;;
5754;SDS011;2902;42.130;24.732;2023-04-24T11:34:07;7.40;;;5.33;;
5754;SDS011;2902;42.130;24.732;2023-04-24T11:36:35;7.57;;;5.20;;
5754;SDS011;2902;42.130;24.732;2023-04-24T11:39:02;10.27;;;4.93;;
5754;SDS011;2902;42.130;24.732;2023-04-24T11:41:30;6.13;;;4.40;;
5754;SDS011;2902;42.130;24.732;2023-04-24T11:43:56;5.00;;;4.60;;
5754;SDS011;2902;42.130;24.732;2023-04-24T11:46:26;6.90;;;4.93;;
5754;SDS011;2902;42.130;24.732;2023-04-24T11:48:55;8.87;;;5.17;;
5754;SDS011;2902;42.130;24.732;2023-04-24T11:51:22;5.00;;;4.63;;
5754;SDS011;2902;42.130;24.732;2023-04-24T11:53:50;5.57;;;5.20;;
5754;SDS011;2902;42.130;24.732;2023-04-24T11:56:17;5.10;;;4.57;;
5754;SDS011;2902;42.130;24.732;2023-04-24T11:58:45;9.70;;;5.50;;
5754;SDS011;2902;42.130;24.732;2023-04-24T12:01:12;6.70;;;5.40;;
5754;SDS011;2902;42.130;24.732;2023-04-24T12:03:39;13.50;;;5.57;;
5754;SDS011;2902;42.130;24.732;2023-04-24T12:06:10;5.50;;;4.70;;
5754;SDS011;2902;42.130;24.732;2023-04-24T12:08:37;6.20;;;5.33;;
5754;SDS011;2902;42.130;24.732;2023-04-24T12:11:05;9.00;;;5.00;;
5754;SDS011;2902;42.130;24.732;2023-04-24T12:13:33;7.57;;;5.03;;
5754;SDS011;2902;42.130;24.732;2023-04-24T12:16:02;6.17;;;5.57;;
5754;SDS011;2902;42.130;24.732;2023-04-24T12:18:29;7.50;;;4.83;;
5754;SDS011;2902;42.130;24.732;2023-04-24T12:23:43;5.60;;;4.70;;
5754;SDS011;2902;42.130;24.732;2023-04-24T12:26:10;5.20;;;4.80;;
5754;SDS011;2902;42.130;24.732;2023-04-24T12:28:38;5.47;;;4.83;;
5754;SDS011;2902;42.130;24.732;2023-04-24T12:31:05;7.33;;;4.67;;
5754;SDS011;2902;42.130;24.732;2023-04-24T12:33:33;6.97;;;4.40;;
5754;SDS011;2902;42.130;24.732;2023-04-24T12:36:00;5.00;;;4.50;;
5754;SDS011;2902;42.130;24.732;2023-04-24T12:38:29;9.70;;;4.30;;
5754;SDS011;2902;42.130;24.732;2023-04-24T12:41:02;6.87;;;5.27;;
5754;SDS011;2902;42.130;24.732;2023-04-24T12:43:30;5.50;;;4.53;;
5754;SDS011;2902;42.130;24.732;2023-04-24T12:45:57;5.33;;;4.00;;
5754;SDS011;2902;42.130;24.732;2023-04-24T12:48:25;4.80;;;4.27;;
5754;SDS011;2902;42.130;24.732;2023-04-24T12:50:51;7.03;;;4.63;;
5754;SDS011;2902;42.130;24.732;2023-04-24T12:53:18;5.07;;;4.63;;
5754;SDS011;2902;42.130;24.732;2023-04-24T12:55:46;4.97;;;4.40;;
5754;SDS011;2902;42.130;24.732;2023-04-24T12:58:17;5.73;;;4.33;;
5754;SDS011;2902;42.130;24.732;2023-04-24T13:00:45;6.77;;;4.87;;
5754;SDS011;2902;42.130;24.732;2023-04-24T13:03:12;11.87;;;5.10;;
5754;SDS011;2902;42.130;24.732;2023-04-24T13:05:39;8.90;;;5.07;;
5754;SDS011;2902;42.130;24.732;2023-04-24T13:08:06;8.10;;;4.33;;
5754;SDS011;2902;42.130;24.732;2023-04-24T13:10:33;4.93;;;4.50;;
5754;SDS011;2902;42.130;24.732;2023-04-24T13:13:02;7.33;;;4.77;;
5754;SDS011;2902;42.130;24.732;2023-04-24T13:15:29;4.53;;;4.23;;
5754;SDS011;2902;42.130;24.732;2023-04-24T13:17:56;4.40;;;4.00;;
5754;SDS011;2902;42.130;24.732;2023-04-24T13:20:23;4.30;;;4.10;;
5754;SDS011;2902;42.130;24.732;2023-04-24T13:22:50;70.83;;;8.83;;
5754;SDS011;2902;42.130;24.732;2023-04-24T13:25:17;5.00;;;4.70;;
5754;SDS011;2902;42.130;24.732;2023-04-24T13:27:45;5.57;;;4.03;;
5754;SDS011;2902;42.130;24.732;2023-04-24T13:30:13;6.70;;;4.83;;
5754;SDS011;2902;42.130;24.732;2023-04-24T13:32:40;7.07;;;4.30;;
5754;SDS011;2902;42.130;24.732;2023-04-24T13:35:07;5.40;;;4.20;;
5754;SDS011;2902;42.130;24.732;2023-04-24T13:37:34;4.53;;;3.90;;
5754;SDS011;2902;42.130;24.732;2023-04-24T13:40:01;4.30;;;4.03;;
5754;SDS011;2902;42.130;24.732;2023-04-24T13:42:31;4.30;;;4.00;;
5754;SDS011;2902;42.130;24.732;2023-04-24T13:44:57;6.10;;;4.37;;
5754;SDS011;2902;42.130;24.732;2023-04-24T13:47:25;5.33;;;4.83;;
5754;SDS011;2902;42.130;24.732;2023-04-24T13:49:52;7.83;;;4.60;;
5754;SDS011;2902;42.130;24.732;2023-04-24T13:52:19;5.20;;;4.20;;
5754;SDS011;2902;42.130;24.732;2023-04-24T13:54:46;4.53;;;4.23;;
5754;SDS011;2902;42.130;24.732;2023-04-24T13:57:13;4.50;;;4.10;;
5754;SDS011;2902;42.130;24.732;2023-04-24T13:59:41;4.47;;;4.07;;
5754;SDS011;2902;42.130;24.732;2023-04-24T14:02:08;5.43;;;4.33;;
5754;SDS011;2902;42.130;24.732;2023-04-24T14:04:36;3.77;;;3.57;;
5754;SDS011;2902;42.130;24.732;2023-04-24T14:07:03;4.77;;;4.37;;
5754;SDS011;2902;42.130;24.732;2023-04-24T14:09:29;5.13;;;4.57;;
5754;SDS011;2902;42.130;24.732;2023-04-24T14:11:56;5.53;;;4.60;;
5754;SDS011;2902;42.130;24.732;2023-04-24T14:14:23;19.67;;;11.97;;
5754;SDS011;2902;42.130;24.732;2023-04-24T14:16:50;38.77;;;18.47;;
5754;SDS011;2902;42.130;24.732;2023-04-24T14:19:17;7.33;;;4.60;;
5754;SDS011;2902;42.130;24.732;2023-04-24T14:21:45;4.77;;;4.20;;
5754;SDS011;2902;42.130;24.732;2023-04-24T14:24:12;22.97;;;11.17;;
5754;SDS011;2902;42.130;24.732;2023-04-24T14:26:38;14.27;;;9.37;;
5754;SDS011;2902;42.130;24.732;2023-04-24T14:29:05;24.53;;;9.57;;
5754;SDS011;2902;42.130;24.732;2023-04-24T14:31:32;43.10;;;16.33;;
5754;SDS011;2902;42.130;24.732;2023-04-24T14:33:58;15.97;;;10.77;;
5754;SDS011;2902;42.130;24.732;2023-04-24T14:36:25;27.07;;;14.60;;
5754;SDS011;2902;42.130;24.732;2023-04-24T14:38:53;7.20;;;6.50;;
5754;SDS011;2902;42.130;24.732;2023-04-24T14:41:20;10.47;;;7.83;;
5754;SDS011;2902;42.130;24.732;2023-04-24T14:43:47;17.37;;;10.63;;
5754;SDS011;2902;42.130;24.732;2023-04-24T14:46:13;5.27;;;4.77;;
5754;SDS011;2902;42.130;24.732;2023-04-24T14:48:40;4.73;;;3.77;;
5754;SDS011;2902;42.130;24.732;2023-04-24T14:51:07;8.50;;;3.87;;
5754;SDS011;2902;42.130;24.732;2023-04-24T14:53:34;5.57;;;3.80;;
5754;SDS011;2902;42.130;24.732;2023-04-24T14:56:02;3.80;;;3.50;;
5754;SDS011;2902;42.130;24.732;2023-04-24T14:58:29;7.90;;;3.67;;